Aeroporto :
LOGIN :

Iscrizione | Disclaimer

   EN    FR    IT 

 










Sommario :    VFR   VFR Marginale   IFR   IFR Intensivo   IFR Molto Intensivo
Visibilità : 
Base nubi : 
>= 8 km
>= 3000ft
5 / 8 km
1000 / 3000 ft
1500m / 5 km
500 / 1000 ft
800 / 1500m
200 / 500 ft
< 800m
< 200 ft
Simboli :   Temporali  Nebbia  Neve Forte  Precipitazioni Forti  Vento > 20 kt
SIGMETs :   Varie  Temporali  Ghiacco  Turbolenza  Onda orograficha  Ceneri Vulcaniche






- Altitudine del aeroporto : 28 ft
- Codice IATA : SOZ


LFKS - Solenzara

ULTIMO METAR :
  • 010230Z AUTO 32005KT CAVOK 07/M01 Q1021

METARs OBSOLETI :
  • 010200Z AUTO 34007KT 9999 SCT072 08/00 Q1021
  • 010130Z AUTO 34008KT 9999 OVC072 08/01 Q1021
  • 010100Z AUTO 36009KT 9999 OVC070 08/02 Q1021
  • 010030Z AUTO 35008KT 9999 OVC070 09/03 Q1021
  • 010000Z AUTO 35008KT 9999 OVC066 09/03 Q1020
  • 312330Z AUTO 35011KT 9999 OVC066 09/03 Q1020

TAF TAF LFKS
Valido dal 31 a 21 ore il 01 a 21 ore UTC


312000Z 3121/0121 30005KT 9999 BKN040
BECMG 0109/0111 05010KT CAVOK
BECMG 0118/0120 27005KT



MetMap, La meteo Aeronautica in un colpo d'occhio ! - Copyright ORBIFLY Dicembre 2007 - Disclaimer

ORBIFLY MET'MAP TEAM :

Programmazione e sviluppo : Alexandra Zaïnal
Concezione : Baudouin d'Aumeries
Aiuto per la programmazione : Marc-Olivier Méhu
Supporto tecnico e logistico : Manuel Goepfert
Aiuto per la traduzione : Arnaldo La Scala

Contatto : metmap@orbifly.com




FONTI E CREDITI :

   NOAA